Time;durP1;ratioP1;P1;durP2;ratioP2;P2;SDS_P1;SDS_P2;PMS_P1;PMS_P2;Temp;Humidity;BMP_temperature;BMP_pressure;BME280_temperature;BME280_humidity;BME280_pressure;Samples;Min_cycle;Max_cycle;Signal;HPM_P1;HPM_P2
2022/11/13 00:01:27;;;;;;;21.60;19.80;;;6.30;99.90;;;;;;5078475;28;20464;-76
2022/11/13 00:04:14;;;;;;;23.40;21.40;;;6.30;99.90;;;;;;5078971;28;20930;-76
2022/11/13 00:07:00;;;;;;;24.90;22.70;;;6.30;99.90;;;;;;5079250;28;20771;-76
2022/11/13 00:09:47;;;;;;;27.90;25.43;;;6.30;99.90;;;;;;5079143;28;20533;-76
2022/11/13 00:12:34;;;;;;;25.73;23.33;;;6.30;99.90;;;;;;5079441;28;20468;-76
2022/11/13 00:15:22;;;;;;;25.63;23.23;;;6.30;99.90;;;;;;5079481;28;20504;-76
2022/11/13 00:18:09;;;;;;;27.10;24.70;;;6.30;99.90;;;;;;5079623;28;20425;-76
2022/11/13 00:20:56;;;;;;;25.13;22.90;;;6.20;99.90;;;;;;5079285;28;20427;-76
2022/11/13 00:23:42;;;;;;;25.60;23.40;;;6.20;99.90;;;;;;5079968;28;20469;-76
2022/11/13 00:26:30;;;;;;;24.67;22.37;;;6.20;99.90;;;;;;5080328;28;20463;-76
2022/11/13 00:29:17;;;;;;;24.13;21.90;;;6.20;99.90;;;;;;5079693;28;20421;-76
2022/11/13 00:32:05;;;;;;;22.10;19.93;;;6.20;99.90;;;;;;5079922;28;20539;-76
2022/11/13 00:34:52;;;;;;;22.60;20.20;;;6.20;99.90;;;;;;5079921;28;20443;-76
2022/11/13 00:37:38;;;;;;;20.83;18.93;;;6.20;99.90;;;;;;5079828;28;20516;-76
2022/11/13 00:40:25;;;;;;;19.60;17.87;;;6.20;99.90;;;;;;5080033;28;20467;-76
2022/11/13 00:43:11;;;;;;;20.67;18.33;;;6.20;99.90;;;;;;5080383;28;20476;-76
2022/11/13 00:45:58;;;;;;;19.30;17.50;;;6.20;99.90;;;;;;5079961;28;20429;-76
2022/11/13 00:48:46;;;;;;;20.03;18.07;;;6.20;99.90;;;;;;5080105;28;20494;-76
2022/11/13 00:51:35;;;;;;;19.53;17.73;;;6.20;99.90;;;;;;5083858;28;20421;-76
2022/11/13 00:54:21;;;;;;;19.13;17.33;;;6.10;99.90;;;;;;5085153;28;20486;-76
2022/11/13 00:57:08;;;;;;;19.40;17.43;;;6.10;99.90;;;;;;5084381;28;20459;-76
2022/11/13 00:59:54;;;;;;;19.70;17.97;;;6.10;99.90;;;;;;5084598;28;20439;-76
2022/11/13 01:02:41;;;;;;;20.77;18.77;;;6.10;99.90;;;;;;5084734;28;20466;-76
2022/11/13 01:05:29;;;;;;;18.43;16.73;;;6.10;99.90;;;;;;5085392;28;20439;-76
2022/11/13 01:08:16;;;;;;;19.90;17.90;;;6.10;99.90;;;;;;5084957;28;20467;-76
2022/11/13 01:11:08;;;;;;;17.57;15.87;;;6.10;99.90;;;;;;5084402;28;20429;-76
2022/11/13 01:13:55;;;;;;;17.40;15.80;;;6.10;99.90;;;;;;5084093;28;20496;-76
2022/11/13 01:16:42;;;;;;;17.33;15.73;;;6.00;99.90;;;;;;5084829;28;20491;-76
2022/11/13 01:19:29;;;;;;;19.87;17.97;;;6.00;99.90;;;;;;5084195;28;20425;-76
2022/11/13 01:22:17;;;;;;;18.60;17.00;;;6.00;99.90;;;;;;5082873;28;20858;-76
2022/11/13 01:25:04;;;;;;;20.20;18.27;;;6.00;99.90;;;;;;5083663;28;20442;-76
2022/11/13 01:27:51;;;;;;;18.20;16.30;;;6.00;99.90;;;;;;5083117;28;20467;-77
2022/11/13 01:30:39;;;;;;;20.90;19.00;;;6.00;99.90;;;;;;5083671;28;20436;-78
2022/11/13 01:33:26;;;;;;;20.30;18.43;;;6.00;99.90;;;;;;5083546;28;20460;-77
2022/11/13 01:36:14;;;;;;;20.47;18.63;;;6.00;99.90;;;;;;5083839;28;20431;-76
2022/11/13 01:39:02;;;;;;;19.43;17.50;;;6.00;99.90;;;;;;5085363;28;20430;-76
2022/11/13 01:41:49;;;;;;;19.60;17.90;;;6.00;99.90;;;;;;5085017;28;20418;-76
2022/11/13 01:44:48;;;;;;;14.87;13.53;;;6.00;99.90;;;;;;5083955;28;20448;-76
2022/11/13 01:47:35;;;;;;;17.40;15.90;;;6.10;99.90;;;;;;5084362;28;20417;-76
2022/11/13 01:50:22;;;;;;;17.00;15.50;;;6.00;99.90;;;;;;5083067;28;20455;-76
2022/11/13 01:53:09;;;;;;;18.20;16.40;;;6.00;99.90;;;;;;5082203;28;20534;-76
2022/11/13 01:55:57;;;;;;;19.73;18.00;;;6.00;99.90;;;;;;5081519;28;20414;-77
2022/11/13 01:58:48;;;;;;;17.83;16.33;;;6.00;99.90;;;;;;5077564;28;20417;-78
2022/11/13 02:01:36;;;;;;;18.83;17.17;;;6.00;99.90;;;;;;5077649;28;20483;-77
2022/11/13 02:04:23;;;;;;;18.03;16.50;;;6.00;99.90;;;;;;5078295;28;20428;-77
2022/11/13 02:07:13;;;;;;;17.87;16.27;;;6.00;99.90;;;;;;5082525;28;20426;-77
2022/11/13 02:10:01;;;;;;;17.77;16.17;;;6.10;99.90;;;;;;5080151;28;20421;-78
2022/11/13 02:12:51;;;;;;;18.47;16.93;;;6.00;99.90;;;;;;5079693;28;21112;-77
2022/11/13 02:15:40;;;;;;;17.83;16.33;;;6.00;99.90;;;;;;5082608;28;20429;-77
2022/11/13 02:18:29;;;;;;;19.47;17.67;;;6.00;99.90;;;;;;5081636;28;20532;-76
2022/11/13 02:21:27;;;;;;;17.20;15.73;;;6.00;99.90;;;;;;5082017;28;20456;-77
2022/11/13 02:24:22;;;;;;;18.00;15.80;;;6.00;99.90;;;;;;5081872;28;20479;-77
2022/11/13 02:27:15;;;;;;;18.40;16.70;;;6.00;99.90;;;;;;5081400;28;20432;-76
2022/11/13 02:30:12;;;;;;;18.93;17.13;;;6.00;99.90;;;;;;5081834;28;20429;-76
2022/11/13 02:33:01;;;;;;;17.80;16.20;;;6.00;99.90;;;;;;5081924;28;20527;-76
2022/11/13 02:35:48;;;;;;;16.83;15.23;;;6.00;99.90;;;;;;5082663;28;20424;-76
2022/11/13 02:38:37;;;;;;;18.80;15.50;;;5.90;99.90;;;;;;5081466;28;20470;-77
2022/11/13 02:41:24;;;;;;;19.20;17.47;;;5.90;99.90;;;;;;5082363;28;20436;-77
2022/11/13 02:44:11;;;;;;;18.60;16.87;;;5.90;99.90;;;;;;5081207;28;20532;-76
2022/11/13 02:46:58;;;;;;;18.73;16.90;;;6.00;99.90;;;;;;5080555;28;20421;-76
2022/11/13 02:49:44;;;;;;;18.00;16.30;;;5.90;99.90;;;;;;5081709;28;20416;-76
2022/11/13 02:52:31;;;;;;;18.20;16.60;;;6.00;99.90;;;;;;5081850;28;20556;-76
2022/11/13 02:55:18;;;;;;;18.97;17.17;;;5.90;99.90;;;;;;5081703;28;20424;-76
2022/11/13 02:58:06;;;;;;;18.93;17.23;;;5.90;99.90;;;;;;5081126;28;20539;-76
2022/11/13 03:00:53;;;;;;;19.13;17.43;;;5.90;99.90;;;;;;5080978;28;20424;-76
2022/11/13 03:03:39;;;;;;;18.30;16.50;;;5.90;99.90;;;;;;5081057;28;20586;-76
2022/11/13 03:06:43;;;;;;;18.40;16.90;;;5.90;99.90;;;;;;5081070;28;20427;-76
2022/11/13 03:09:29;;;;;;;17.37;15.80;;;5.90;99.90;;;;;;5081121;28;20509;-76
2022/11/13 03:12:16;;;;;;;18.90;17.10;;;5.90;99.90;;;;;;5081144;28;20518;-76
2022/11/13 03:15:05;;;;;;;20.03;18.13;;;5.90;99.90;;;;;;5080779;28;20531;-76
2022/11/13 03:17:51;;;;;;;19.53;17.73;;;5.90;99.90;;;;;;5079368;28;20488;-78
2022/11/13 03:20:39;;;;;;;19.50;17.50;;;5.80;99.90;;;;;;5075786;28;20424;-76
2022/11/13 03:23:26;;;;;;;19.40;17.73;;;5.80;99.90;;;;;;5077274;28;20461;-76
2022/11/13 03:26:15;;;;;;;17.10;15.67;;;5.80;99.90;;;;;;5077815;28;20515;-77
2022/11/13 03:29:01;;;;;;;17.27;15.70;;;5.80;99.90;;;;;;5077874;28;20425;-77
2022/11/13 03:31:49;;;;;;;17.40;15.90;;;5.80;99.90;;;;;;5077829;28;20437;-77
2022/11/13 03:34:37;;;;;;;17.20;15.60;;;5.80;99.90;;;;;;5078128;28;20420;-77
2022/11/13 03:37:23;;;;;;;18.70;16.97;;;5.80;99.90;;;;;;5077437;28;20460;-77
2022/11/13 03:40:11;;;;;;;17.40;15.90;;;5.80;99.90;;;;;;5078057;28;20836;-77
2022/11/13 03:42:57;;;;;;;17.93;16.43;;;5.70;99.90;;;;;;5077952;28;20539;-77
2022/11/13 03:45:45;;;;;;;17.23;15.63;;;5.70;99.90;;;;;;5077712;28;20432;-76
2022/11/13 03:48:33;;;;;;;19.30;17.50;;;5.70;99.90;;;;;;5078022;28;20444;-77
2022/11/13 03:51:19;;;;;;;17.43;15.93;;;5.70;99.90;;;;;;5078404;28;20796;-76
2022/11/13 03:54:06;;;;;;;17.40;15.80;;;5.60;99.90;;;;;;5078543;28;20424;-76
2022/11/13 03:56:52;;;;;;;17.80;16.20;;;5.70;99.90;;;;;;5078534;28;20425;-76
2022/11/13 03:59:39;;;;;;;18.20;16.40;;;5.60;99.90;;;;;;5077474;28;20429;-77
2022/11/13 04:02:26;;;;;;;17.60;15.90;;;5.60;99.90;;;;;;5076866;28;20572;-77
2022/11/13 04:05:14;;;;;;;18.00;16.40;;;5.60;99.90;;;;;;5077563;28;20506;-76
2022/11/13 04:08:08;;;;;;;17.20;15.60;;;5.60;99.90;;;;;;5078023;28;20517;-77
2022/11/13 04:10:54;;;;;;;17.93;16.10;;;5.50;99.90;;;;;;5078222;28;20467;-77
2022/11/13 04:13:41;;;;;;;17.67;16.07;;;5.50;99.90;;;;;;5078122;28;20463;-76
2022/11/13 04:16:28;;;;;;;16.33;14.83;;;5.50;99.90;;;;;;5079206;28;20421;-76
2022/11/13 04:19:14;;;;;;;18.60;16.90;;;5.50;99.90;;;;;;5079283;28;20820;-76
2022/11/13 04:22:02;;;;;;;20.40;18.50;;;5.50;99.90;;;;;;5079155;28;20472;-76
2022/11/13 04:24:49;;;;;;;25.03;22.43;;;5.50;99.90;;;;;;5079017;28;20503;-76
2022/11/13 04:27:35;;;;;;;20.17;18.27;;;5.40;99.90;;;;;;5079474;28;20416;-76
2022/11/13 04:30:22;;;;;;;21.50;19.60;;;5.50;99.90;;;;;;5080630;28;20432;-76
2022/11/13 04:33:09;;;;;;;18.93;17.10;;;5.40;99.90;;;;;;5080057;28;20581;-78
2022/11/13 04:35:55;;;;;;;20.53;18.63;;;5.40;99.90;;;;;;5080281;28;20467;-76
2022/11/13 04:38:43;;;;;;;20.43;18.43;;;5.40;99.90;;;;;;5079896;28;20453;-77
2022/11/13 04:44:40;;;;;;;17.57;15.93;;;5.30;99.90;;;;;;5079759;28;20451;-76
2022/11/13 04:47:27;;;;;;;16.13;14.67;;;5.30;99.90;;;;;;5080028;28;20475;-76
2022/11/13 04:50:15;;;;;;;17.00;15.40;;;5.30;99.90;;;;;;5080643;28;20513;-76
2022/11/13 04:53:01;;;;;;;17.57;16.07;;;5.30;99.90;;;;;;5079587;28;20900;-76
2022/11/13 04:55:49;;;;;;;15.43;14.00;;;5.30;99.90;;;;;;5079689;28;20437;-76
2022/11/13 04:58:36;;;;;;;18.17;16.43;;;5.20;99.90;;;;;;5080182;28;20464;-78
2022/11/13 05:01:23;;;;;;;13.73;12.33;;;5.20;99.90;;;;;;5079809;28;20433;-78
2022/11/13 05:04:12;;;;;;;17.80;16.03;;;5.20;99.90;;;;;;5079878;28;20420;-76
2022/11/13 05:06:59;;;;;;;16.50;15.00;;;5.20;99.90;;;;;;5080472;28;20493;-76
2022/11/13 05:09:46;;;;;;;16.30;14.87;;;5.20;99.90;;;;;;5080061;28;20421;-76
2022/11/13 05:12:33;;;;;;;15.83;14.40;;;5.20;99.90;;;;;;5080616;28;20925;-76
2022/11/13 05:15:20;;;;;;;16.37;14.63;;;5.10;99.90;;;;;;5079550;28;20471;-78
2022/11/13 05:18:07;;;;;;;17.87;16.17;;;5.10;99.90;;;;;;5080212;28;20952;-76
2022/11/13 05:20:53;;;;;;;17.00;15.30;;;5.10;99.90;;;;;;5080143;28;20847;-76
2022/11/13 05:23:40;;;;;;;16.30;14.70;;;5.10;99.90;;;;;;5080168;28;20456;-76
2022/11/13 05:26:26;;;;;;;14.90;13.60;;;5.00;99.90;;;;;;5080068;28;20425;-76
2022/11/13 05:29:14;;;;;;;17.03;15.40;;;5.00;99.90;;;;;;5080433;28;20421;-76
2022/11/13 05:32:01;;;;;;;15.97;14.50;;;5.00;99.90;;;;;;5080221;28;20506;-76
2022/11/13 05:34:47;;;;;;;16.90;15.20;;;5.00;99.90;;;;;;5080945;28;20929;-76
2022/11/13 05:37:34;;;;;;;17.17;15.57;;;5.00;99.90;;;;;;5082393;28;20425;-76
2022/11/13 05:40:21;;;;;;;17.20;15.60;;;4.90;99.90;;;;;;5084342;28;20456;-76
2022/11/13 05:43:07;;;;;;;15.83;14.33;;;4.90;99.90;;;;;;5083438;28;20463;-76
2022/11/13 05:46:01;;;;;;;16.20;14.73;;;4.90;99.90;;;;;;5083036;28;20821;-77
2022/11/13 05:48:51;;;;;;;16.40;14.90;;;4.90;99.90;;;;;;5083197;28;20930;-76
2022/11/13 05:51:38;;;;;;;16.70;15.20;;;4.90;99.90;;;;;;5084110;28;20949;-76
2022/11/13 05:54:24;;;;;;;16.47;15.07;;;4.90;99.90;;;;;;5085627;28;20432;-76
2022/11/13 05:57:11;;;;;;;17.47;15.77;;;4.80;99.90;;;;;;5084788;28;20424;-76
2022/11/13 05:59:58;;;;;;;16.77;15.07;;;4.80;99.90;;;;;;5084296;28;20452;-76
2022/11/13 06:02:45;;;;;;;18.90;17.00;;;4.80;99.90;;;;;;5083854;28;20459;-76
2022/11/13 06:05:35;;;;;;;18.77;16.97;;;4.80;99.90;;;;;;5084013;28;20847;-76
2022/11/13 06:08:21;;;;;;;18.13;16.43;;;4.80;99.90;;;;;;5083822;28;20473;-76
2022/11/13 06:11:10;;;;;;;17.90;16.20;;;4.80;99.90;;;;;;5083652;28;20491;-76
2022/11/13 06:13:58;;;;;;;18.93;16.43;;;4.80;99.90;;;;;;5083992;28;20468;-77
2022/11/13 06:16:45;;;;;;;19.50;17.60;;;4.80;99.90;;;;;;5083606;28;20420;-77
2022/11/13 06:19:33;;;;;;;19.40;17.40;;;4.80;99.90;;;;;;5083368;28;20513;-77
2022/11/13 06:22:19;;;;;;;19.57;17.60;;;4.80;99.90;;;;;;5082882;28;20480;-77
2022/11/13 06:25:07;;;;;;;19.50;17.40;;;4.80;99.90;;;;;;5083395;28;20433;-76
2022/11/13 06:27:54;;;;;;;18.70;16.87;;;4.80;99.90;;;;;;5082567;28;20440;-76
2022/11/13 06:30:40;;;;;;;19.07;17.17;;;4.80;99.90;;;;;;5083002;28;20436;-76
2022/11/13 06:33:28;;;;;;;19.80;17.70;;;4.80;99.90;;;;;;5083299;28;20542;-75
2022/11/13 06:36:18;;;;;;;19.50;17.70;;;4.70;99.90;;;;;;5083218;28;20445;-75
2022/11/13 06:39:09;;;;;;;19.23;17.30;;;4.70;99.90;;;;;;5083775;28;20460;-74
2022/11/13 06:41:56;;;;;;;18.90;17.10;;;4.70;99.90;;;;;;5082877;28;20498;-74
2022/11/13 06:44:42;;;;;;;21.57;19.57;;;4.70;99.90;;;;;;5082999;28;20429;-74
2022/11/13 06:47:29;;;;;;;21.10;19.10;;;4.70;99.90;;;;;;5083414;28;20501;-74
2022/11/13 06:50:16;;;;;;;20.03;18.23;;;4.60;99.90;;;;;;5083479;28;20425;-74
2022/11/13 06:53:04;;;;;;;20.60;18.60;;;4.60;99.90;;;;;;5083451;28;20511;-74
2022/11/13 06:55:50;;;;;;;19.70;17.80;;;4.60;99.90;;;;;;5082751;28;20475;-74
2022/11/13 06:58:38;;;;;;;18.87;16.93;;;4.70;99.90;;;;;;5083505;28;20425;-74
2022/11/13 07:01:26;;;;;;;22.20;19.63;;;4.70;99.90;;;;;;5084473;28;20471;-74
2022/11/13 07:04:13;;;;;;;20.27;18.30;;;4.70;99.90;;;;;;5080583;28;20417;-74
2022/11/13 07:06:59;;;;;;;21.00;18.87;;;4.60;99.90;;;;;;5078098;28;20433;-75
2022/11/13 07:09:48;;;;;;;21.87;19.53;;;4.60;99.90;;;;;;5077686;28;20444;-75
2022/11/13 07:12:34;;;;;;;23.67;21.23;;;4.70;99.90;;;;;;5078106;28;20468;-76
2022/11/13 07:15:21;;;;;;;20.90;18.90;;;4.70;99.90;;;;;;5077753;28;20563;-75
2022/11/13 07:18:08;;;;;;;24.73;22.23;;;4.70;99.90;;;;;;5076113;28;20925;-75
2022/11/13 07:20:55;;;;;;;23.60;21.33;;;4.80;99.90;;;;;;5077204;28;20567;-76
2022/11/13 07:23:42;;;;;;;25.93;23.40;;;4.80;99.90;;;;;;5078129;28;20471;-75
2022/11/13 07:26:30;;;;;;;24.13;21.70;;;4.80;99.90;;;;;;5076730;28;20437;-75
2022/11/13 07:29:17;;;;;;;25.03;22.67;;;4.80;99.90;;;;;;5077959;28;20507;-75
2022/11/13 07:32:04;;;;;;;26.97;24.40;;;4.90;99.90;;;;;;5077792;28;20460;-75
2022/11/13 07:34:51;;;;;;;25.60;23.10;;;4.90;99.90;;;;;;5077157;28;20467;-75
2022/11/13 07:37:37;;;;;;;24.67;22.27;;;4.90;99.90;;;;;;5077587;28;20440;-74
2022/11/13 07:40:24;;;;;;;25.03;22.63;;;5.00;99.90;;;;;;5077197;28;20456;-75
2022/11/13 07:43:12;;;;;;;27.13;24.43;;;5.00;99.90;;;;;;5076174;28;20610;-74
2022/11/13 07:46:00;;;;;;;26.40;23.70;;;5.00;99.90;;;;;;5077074;28;20819;-76
2022/11/13 07:48:47;;;;;;;26.97;24.30;;;5.00;99.90;;;;;;5078511;28;20427;-76
2022/11/13 07:51:34;;;;;;;29.67;26.80;;;5.10;99.90;;;;;;5077279;28;20903;-76
2022/11/13 07:54:20;;;;;;;25.47;23.20;;;5.10;99.90;;;;;;5077189;28;20420;-76
2022/11/13 07:57:07;;;;;;;29.90;26.93;;;5.20;99.90;;;;;;5079203;28;20571;-76
2022/11/13 07:59:55;;;;;;;29.60;26.67;;;5.20;99.90;;;;;;5080693;28;20461;-76
2022/11/13 08:02:42;;;;;;;28.43;25.40;;;5.30;99.90;;;;;;5079428;28;20487;-76
2022/11/13 08:05:30;;;;;;;30.30;27.50;;;5.40;99.90;;;;;;5077931;28;20432;-76
2022/11/13 08:08:17;;;;;;;29.47;26.60;;;5.40;99.90;;;;;;5081492;28;20861;-75
2022/11/13 08:11:05;;;;;;;33.43;30.10;;;5.50;99.90;;;;;;5082425;28;20428;-75
2022/11/13 08:13:52;;;;;;;29.93;27.13;;;5.50;99.90;;;;;;5082912;28;20492;-75
2022/11/13 08:16:41;;;;;;;30.57;27.70;;;5.60;99.90;;;;;;5079514;28;20440;-75
2022/11/13 08:19:28;;;;;;;31.40;28.30;;;5.60;99.90;;;;;;5081964;28;20429;-75
2022/11/13 08:22:14;;;;;;;32.70;29.70;;;5.70;99.90;;;;;;5082504;28;20658;-75
2022/11/13 08:25:01;;;;;;;31.53;28.50;;;5.80;99.90;;;;;;5082528;28;20423;-75
2022/11/13 08:27:48;;;;;;;31.53;28.70;;;5.80;99.90;;;;;;5081299;28;20470;-74
2022/11/13 08:30:35;;;;;;;34.47;31.27;;;5.90;99.90;;;;;;5082007;28;20460;-75
2022/11/13 08:33:23;;;;;;;32.60;29.70;;;5.90;99.90;;;;;;5080700;28;20468;-74
2022/11/13 08:36:10;;;;;;;32.13;29.13;;;6.00;99.90;;;;;;5081302;28;20445;-74
2022/11/13 08:38:57;;;;;;;32.17;29.33;;;6.10;99.90;;;;;;5078575;28;20433;-75
2022/11/13 08:41:44;;;;;;;34.90;31.70;;;6.10;99.90;;;;;;5079823;28;20452;-75
2022/11/13 08:44:31;;;;;;;34.47;31.07;;;6.20;99.90;;;;;;5077913;28;20429;-76
2022/11/13 08:47:18;;;;;;;32.97;30.07;;;6.20;99.90;;;;;;5077058;28;20433;-76
2022/11/13 08:50:08;;;;;;;32.30;29.40;;;6.30;99.90;;;;;;5075848;28;20781;-76
2022/11/13 08:52:54;;;;;;;33.67;30.70;;;6.40;99.90;;;;;;5075946;28;20480;-77
2022/11/13 08:55:41;;;;;;;31.80;28.90;;;6.40;99.90;;;;;;5076188;28;20493;-76
2022/11/13 08:58:27;;;;;;;31.50;28.80;;;6.50;99.90;;;;;;5075768;28;20452;-76
2022/11/13 09:01:15;;;;;;;29.57;27.00;;;6.50;99.90;;;;;;5075609;28;20593;-76
2022/11/13 09:04:02;;;;;;;29.80;27.27;;;6.50;99.90;;;;;;5075456;28;20433;-77
2022/11/13 09:06:50;;;;;;;31.30;28.40;;;6.60;99.90;;;;;;5075710;28;20440;-76
2022/11/13 09:09:37;;;;;;;32.27;29.47;;;6.60;99.90;;;;;;5076050;28;20546;-76
2022/11/13 09:12:23;;;;;;;30.43;27.83;;;6.70;99.90;;;;;;5077466;28;20464;-76
2022/11/13 09:15:11;;;;;;;28.93;26.43;;;6.70;99.90;;;;;;5078008;28;20428;-73
2022/11/13 09:17:58;;;;;;;30.97;28.23;;;6.80;99.90;;;;;;5077211;28;20424;-74
2022/11/13 09:20:45;;;;;;;30.50;27.90;;;6.80;99.90;;;;;;5076914;28;20459;-70
2022/11/13 09:23:34;;;;;;;29.97;27.37;;;6.80;99.90;;;;;;5077017;28;21061;-74
2022/11/13 09:26:20;;;;;;;30.70;28.10;;;6.90;99.90;;;;;;5076839;28;20990;-74
2022/11/13 09:29:09;;;;;;;30.47;27.63;;;7.00;99.90;;;;;;5080140;28;20470;-75
2022/11/13 09:31:56;;;;;;;31.10;27.13;;;7.00;99.90;;;;;;5081361;28;20433;-76
2022/11/13 09:34:43;;;;;;;27.13;25.03;;;7.10;99.90;;;;;;5081700;28;20426;-75
2022/11/13 09:37:31;;;;;;;31.87;29.13;;;7.10;99.90;;;;;;5084049;28;20517;-75
2022/11/13 09:40:27;;;;;;;30.27;27.47;;;7.20;99.90;;;;;;5084904;28;20496;-75
2022/11/13 09:43:24;;;;;;;28.90;26.40;;;7.30;99.90;;;;;;5084906;28;20490;-75
2022/11/13 09:46:17;;;;;;;29.13;26.63;;;7.30;99.90;;;;;;5084147;28;20444;-76
2022/11/13 09:49:11;;;;;;;29.70;27.30;;;7.40;99.90;;;;;;5083283;28;20432;-76
2022/11/13 09:52:02;;;;;;;28.73;26.43;;;7.40;99.90;;;;;;5082002;28;20521;-76
2022/11/13 09:54:53;;;;;;;29.50;26.83;;;7.50;99.90;;;;;;5082934;28;20488;-76
2022/11/13 09:57:50;;;;;;;29.13;26.63;;;7.50;99.90;;;;;;5082641;28;20440;-76
2022/11/13 10:00:37;;;;;;;29.00;26.50;;;7.60;99.90;;;;;;5082735;28;20448;-76
2022/11/13 10:03:35;;;;;;;29.17;26.77;;;7.60;99.90;;;;;;5082768;28;20462;-76
2022/11/13 10:06:58;;;;;;;29.50;27.07;;;7.70;99.90;;;;;;5080766;28;20424;-76
2022/11/13 10:09:57;;;;;;;29.93;27.47;;;7.70;99.90;;;;;;5079030;28;20427;-76
2022/11/13 10:12:48;;;;;;;28.23;26.00;;;7.80;99.90;;;;;;5079432;28;20543;-75
2022/11/13 10:15:37;;;;;;;30.17;27.47;;;7.80;99.90;;;;;;5079516;28;20421;-75
2022/11/13 10:18:29;;;;;;;28.93;26.37;;;7.80;99.90;;;;;;5079330;28;20794;-76
2022/11/13 10:21:26;;;;;;;29.83;27.33;;;7.90;99.90;;;;;;5079363;28;20483;-75
2022/11/13 10:24:18;;;;;;;29.80;27.30;;;8.00;99.90;;;;;;5081315;28;20436;-76
2022/11/13 10:27:09;;;;;;;33.03;30.00;;;8.00;99.90;;;;;;5081903;28;20471;-76
2022/11/13 10:29:58;;;;;;;27.60;25.40;;;8.00;99.90;;;;;;5081426;28;20457;-74
2022/11/13 10:32:45;;;;;;;27.50;25.17;;;8.10;99.90;;;;;;5082166;28;20467;-75
2022/11/13 10:35:49;;;;;;;29.20;26.80;;;8.20;99.90;;;;;;5081110;28;20496;-74
2022/11/13 10:38:43;;;;;;;27.93;25.40;;;8.30;99.90;;;;;;5081045;28;20439;-75
2022/11/13 10:41:30;;;;;;;27.20;24.97;;;8.30;99.90;;;;;;5081239;28;20460;-75
2022/11/13 10:44:26;;;;;;;27.87;25.57;;;8.40;99.90;;;;;;5082171;28;20422;-75
2022/11/13 10:47:17;;;;;;;27.07;24.73;;;8.50;99.90;;;;;;5082239;28;20424;-75
2022/11/13 10:50:26;;;;;;;27.87;25.50;;;8.50;99.90;;;;;;5082334;28;20424;-75
2022/11/13 10:53:15;;;;;;;27.67;25.37;;;8.60;99.90;;;;;;5080438;28;20480;-74
2022/11/13 10:56:02;;;;;;;26.43;24.33;;;8.70;99.90;;;;;;5080383;28;20420;-74
2022/11/13 10:59:01;;;;;;;24.17;22.20;;;8.80;99.90;;;;;;5080614;28;20424;-75
2022/11/13 11:01:48;;;;;;;25.37;22.97;;;8.90;99.90;;;;;;5081635;28;20459;-75
2022/11/13 11:04:37;;;;;;;25.20;23.03;;;8.90;99.90;;;;;;5081802;28;20433;-75
2022/11/13 11:07:26;;;;;;;27.27;25.00;;;9.00;99.90;;;;;;5076126;28;20961;-75
2022/11/13 11:10:23;;;;;;;27.70;25.50;;;9.10;99.90;;;;;;5080923;28;20555;-74
2022/11/13 11:13:11;;;;;;;25.50;23.37;;;9.10;99.90;;;;;;5080981;28;20619;-75
2022/11/13 11:16:02;;;;;;;27.27;24.90;;;9.20;99.90;;;;;;5085821;28;20463;-75
2022/11/13 11:18:53;;;;;;;25.60;23.40;;;9.20;99.90;;;;;;5085976;28;20501;-75
2022/11/13 11:21:42;;;;;;;24.93;22.93;;;9.30;99.90;;;;;;5085021;28;20538;-75
2022/11/13 11:24:33;;;;;;;25.10;22.80;;;9.30;99.90;;;;;;5085269;28;20421;-74
2022/11/13 11:27:25;;;;;;;24.30;22.20;;;9.30;99.90;;;;;;5085801;28;20475;-76
2022/11/13 11:30:19;;;;;;;23.07;21.17;;;9.40;99.90;;;;;;5085353;28;20422;-75
2022/11/13 11:33:12;;;;;;;23.70;21.83;;;9.40;99.90;;;;;;5085682;28;20503;-75
2022/11/13 11:36:05;;;;;;;24.03;22.03;;;9.50;99.90;;;;;;5085305;28;20499;-75
2022/11/13 11:38:59;;;;;;;24.27;22.27;;;9.60;99.90;;;;;;5086030;28;20495;-75
2022/11/13 11:41:53;;;;;;;21.07;19.47;;;9.60;99.90;;;;;;5086482;28;20491;-75
2022/11/13 11:44:56;;;;;;;21.57;19.67;;;9.80;99.90;;;;;;5075458;28;20432;-75
2022/11/13 11:47:43;;;;;;;21.47;19.67;;;9.70;99.90;;;;;;5078856;28;20425;-75
2022/11/13 11:50:38;;;;;;;20.17;18.50;;;9.80;99.90;;;;;;5079245;28;20429;-75
2022/11/13 11:53:36;;;;;;;21.33;19.53;;;9.90;99.90;;;;;;5079277;28;20463;-75
2022/11/13 11:56:29;;;;;;;20.83;18.90;;;9.90;99.90;;;;;;5079513;28;20425;-75
2022/11/13 11:59:39;;;;;;;21.83;19.93;;;10.00;99.90;;;;;;5079328;28;20429;-75
2022/11/13 12:02:59;;;;;;;19.87;18.20;;;10.00;99.90;;;;;;5079577;28;20487;-76
2022/11/13 12:05:57;;;;;;;20.50;18.77;;;10.10;99.90;;;;;;5080082;28;20793;-75
2022/11/13 12:08:48;;;;;;;19.53;17.77;;;10.20;99.90;;;;;;5080328;28;20917;-75
2022/11/13 12:11:43;;;;;;;19.17;17.47;;;10.30;99.90;;;;;;5080601;28;20489;-75
2022/11/13 12:14:42;;;;;;;17.53;15.93;;;10.30;99.90;;;;;;5080812;28;20413;-75
2022/11/13 12:17:46;;;;;;;15.80;14.40;;;10.40;99.90;;;;;;5080331;28;20416;-75
2022/11/13 12:20:39;;;;;;;17.03;15.40;;;10.50;99.90;;;;;;5080583;28;20412;-75
2022/11/13 12:23:40;;;;;;;15.57;14.07;;;10.50;99.90;;;;;;5081173;28;20530;-75
2022/11/13 12:26:30;;;;;;;14.03;12.63;;;10.60;99.90;;;;;;5081260;28;20933;-75
2022/11/13 12:29:34;;;;;;;16.03;14.60;;;10.70;99.90;;;;;;5081164;28;20417;-75
2022/11/13 12:32:32;;;;;;;15.17;13.77;;;10.70;99.90;;;;;;5081030;28;21034;-75
2022/11/13 12:35:22;;;;;;;13.60;12.30;;;10.80;99.90;;;;;;5082358;28;20418;-75
2022/11/13 12:38:18;;;;;;;14.90;13.50;;;10.90;99.90;;;;;;5080897;28;20850;-75
2022/11/13 12:41:14;;;;;;;12.80;11.70;;;10.90;99.90;;;;;;5081591;28;20452;-75
2022/11/13 12:44:21;;;;;;;14.17;12.87;;;11.00;99.90;;;;;;5081823;28;20435;-75
2022/11/13 12:47:09;;;;;;;13.13;11.80;;;11.00;99.90;;;;;;5084537;28;20424;-75
2022/11/13 12:50:01;;;;;;;12.23;11.23;;;11.10;99.90;;;;;;5086773;28;20421;-75
2022/11/13 12:52:59;;;;;;;12.80;11.60;;;11.10;99.90;;;;;;5086401;28;20472;-75
2022/11/13 12:55:58;;;;;;;11.50;10.50;;;11.20;99.90;;;;;;5086099;28;20539;-75
2022/11/13 12:58:58;;;;;;;13.70;12.40;;;11.30;99.90;;;;;;5085890;28;20468;-75
2022/11/13 13:02:30;;;;;;;11.80;10.60;;;11.30;99.90;;;;;;5080623;28;20479;-75
2022/11/13 13:05:24;;;;;;;11.40;10.20;;;11.40;99.90;;;;;;5081742;28;20424;-75
2022/11/13 13:08:30;;;;;;;12.47;11.27;;;11.50;99.90;;;;;;5085216;28;20427;-75
2022/11/13 13:11:26;;;;;;;11.87;10.77;;;11.50;99.90;;;;;;5086375;28;20464;-75
2022/11/13 13:14:47;;;;;;;12.70;11.60;;;11.60;99.90;;;;;;5086979;28;20495;-75
2022/11/13 13:17:35;;;;;;;13.50;12.20;;;11.60;99.90;;;;;;5086720;28;20922;-75
2022/11/13 13:20:31;;;;;;;12.97;11.77;;;11.60;99.90;;;;;;5087469;28;20452;-75
2022/11/13 13:23:27;;;;;;;14.73;13.43;;;11.70;99.90;;;;;;5088002;28;20468;-75
2022/11/13 13:26:16;;;;;;;15.13;13.83;;;11.80;99.90;;;;;;5089570;28;20509;-75
2022/11/13 13:29:23;;;;;;;15.23;13.63;;;11.80;99.90;;;;;;5086032;28;20440;-75
2022/11/13 13:35:25;;;;;;;12.83;11.73;;;11.90;99.90;;;;;;5078976;28;20495;-75
2022/11/13 13:38:18;;;;;;;12.73;11.43;;;11.90;99.90;;;;;;5078946;28;20437;-76
2022/11/13 13:41:16;;;;;;;11.60;10.50;;;11.90;99.90;;;;;;5085094;28;20420;-75
2022/11/13 13:44:24;;;;;;;9.83;8.93;;;11.90;99.90;;;;;;5085960;28;20494;-75
2022/11/13 13:47:20;;;;;;;10.90;9.90;;;12.00;99.90;;;;;;5083838;28;20512;-75
2022/11/13 13:50:13;;;;;;;9.33;8.43;;;11.90;99.90;;;;;;5079542;28;20513;-76
2022/11/13 13:53:02;;;;;;;9.97;9.07;;;11.90;99.90;;;;;;5082888;28;20537;-75
2022/11/13 13:55:54;;;;;;;10.23;9.30;;;11.90;99.90;;;;;;5079725;28;20447;-76
2022/11/13 13:58:42;;;;;;;11.50;10.30;;;11.90;99.90;;;;;;5077347;28;21030;-75
2022/11/13 14:01:30;;;;;;;14.80;13.30;;;11.80;99.90;;;;;;5077130;28;20526;-76
2022/11/13 14:04:20;;;;;;;11.77;10.67;;;11.80;99.90;;;;;;5076219;28;20420;-76
2022/11/13 14:07:19;;;;;;;12.30;11.10;;;11.80;99.90;;;;;;5076359;28;20495;-76
2022/11/13 14:10:15;;;;;;;12.07;10.97;;;11.70;99.90;;;;;;5076440;28;20983;-77
2022/11/13 14:13:03;;;;;;;11.07;10.07;;;11.70;99.90;;;;;;5076129;28;20461;-76
2022/11/13 14:16:01;;;;;;;13.70;12.40;;;11.70;99.90;;;;;;5077125;28;20879;-76
2022/11/13 14:18:47;;;;;;;13.07;11.87;;;11.60;99.90;;;;;;5080083;28;20774;-76
2022/11/13 14:21:34;;;;;;;13.47;12.27;;;11.60;99.90;;;;;;5077423;28;20476;-76
2022/11/13 14:24:24;;;;;;;13.47;12.27;;;11.60;99.90;;;;;;5077786;28;20452;-76
2022/11/13 14:27:18;;;;;;;14.57;13.17;;;11.60;99.90;;;;;;5076543;28;20433;-76
2022/11/13 14:30:19;;;;;;;14.37;13.07;;;11.50;99.90;;;;;;5077338;28;20413;-76
2022/11/13 14:33:14;;;;;;;15.00;13.70;;;11.50;99.90;;;;;;5077435;28;20447;-75
2022/11/13 14:36:02;;;;;;;14.10;12.90;;;11.50;99.90;;;;;;5075739;28;20429;-77
2022/11/13 14:38:49;;;;;;;14.93;13.53;;;11.40;99.90;;;;;;5076580;28;20870;-76